Time;durP1;ratioP1;P1;durP2;ratioP2;P2;SDS_P1;SDS_P2;PMS_P1;PMS_P2;Temp;Humidity;BMP_temperature;BMP_pressure;BME280_temperature;BME280_humidity;BME280_pressure;Samples;Min_cycle;Max_cycle;Signal;HPM_P1;HPM_P2
2023/07/23 00:00:50;;;;;;;0.10;0.10;;;;;;;14.08;100.00;100768.38;5052633;28;20071;-50
2023/07/23 00:03:15;;;;;;;0.20;0.20;;;;;;;14.11;100.00;100767.53;5052709;28;20028;-48
2023/07/23 00:05:43;;;;;;;0.10;0.10;;;;;;;14.10;100.00;100761.50;5051500;28;20025;-48
2023/07/23 00:08:08;;;;;;;0.10;0.10;;;;;;;14.10;100.00;100765.78;5052467;28;20060;-49
2023/07/23 00:10:34;;;;;;;0.10;0.10;;;;;;;14.13;100.00;100756.34;5052432;28;20065;-49
2023/07/23 00:12:59;;;;;;;0.10;0.10;;;;;;;14.12;100.00;100749.41;5052020;28;20028;-49
2023/07/23 00:15:24;;;;;;;0.10;0.10;;;;;;;14.14;100.00;100752.06;5052400;28;20362;-49
2023/07/23 00:17:50;;;;;;;0.10;0.10;;;;;;;14.12;100.00;100746.81;5052390;28;20440;-49
2023/07/23 00:20:15;;;;;;;0.10;0.10;;;;;;;14.14;100.00;100741.69;5051747;28;20029;-50
2023/07/23 00:22:41;;;;;;;0.10;0.10;;;;;;;14.14;100.00;100734.78;5052072;28;20032;-50
2023/07/23 00:25:08;;;;;;;0.10;0.10;;;;;;;14.17;100.00;100733.94;5052364;28;20033;-50
2023/07/23 00:27:34;;;;;;;0.10;0.10;;;;;;;14.15;100.00;100733.94;5051244;28;20076;-49
2023/07/23 00:30:00;;;;;;;0.10;0.10;;;;;;;14.15;100.00;100731.34;5052802;28;20112;-50
2023/07/23 00:32:25;;;;;;;0.10;0.10;;;;;;;14.18;100.00;100719.25;5052124;28;20021;-51
2023/07/23 00:34:50;;;;;;;0.10;0.10;;;;;;;14.16;100.00;100717.53;5051553;28;20100;-47
2023/07/23 00:37:16;;;;;;;0.10;0.10;;;;;;;14.19;100.00;100714.09;5052157;28;20389;-50
2023/07/23 00:39:41;;;;;;;0.10;0.10;;;;;;;14.18;100.00;100702.00;5051113;28;20484;-48
2023/07/23 00:42:07;;;;;;;0.10;0.10;;;;;;;14.20;100.00;100704.59;5052298;28;20087;-49
2023/07/23 00:44:32;;;;;;;0.10;0.10;;;;;;;14.19;100.00;100697.66;5051969;28;20423;-50
2023/07/23 00:47:00;;;;;;;0.10;0.10;;;;;;;14.21;100.00;100690.78;5051587;28;20071;-50
2023/07/23 00:49:25;;;;;;;0.10;0.10;;;;;;;14.21;100.00;100683.03;5051891;28;20036;-50
2023/07/23 00:51:52;;;;;;;0.10;0.10;;;;;;;14.20;100.00;100682.13;5052187;28;20017;-50
2023/07/23 00:54:18;;;;;;;0.10;0.10;;;;;;;14.20;100.00;100683.88;5054440;28;20112;-49
2023/07/23 00:56:44;;;;;;;0.10;0.10;;;;;;;14.20;100.00;100678.69;5055515;28;20108;-50
2023/07/23 00:59:10;;;;;;;0.05;0.05;;;;;;;14.20;100.00;100673.50;5055987;28;20108;-47
2023/07/23 01:01:36;;;;;;;0.10;0.10;;;;;;;14.19;100.00;100676.94;5054610;28;20100;-49
2023/07/23 01:04:02;;;;;;;0.10;0.10;;;;;;;14.20;100.00;100668.31;5055778;28;20037;-49
2023/07/23 01:06:31;;;;;;;0.10;0.10;;;;;;;14.15;100.00;100661.34;5055305;28;20074;-50
2023/07/23 01:08:57;;;;;;;0.10;0.10;;;;;;;14.15;100.00;100656.16;5054653;28;20060;-48
2023/07/23 01:11:23;;;;;;;0.10;0.10;;;;;;;14.16;100.00;100647.56;5055554;28;20396;-47
2023/07/23 01:13:51;;;;;;;0.10;0.10;;;;;;;14.15;100.00;100651.00;5055730;28;20534;-50
2023/07/23 01:16:17;;;;;;;0.10;0.10;;;;;;;14.14;100.00;100649.25;5054852;28;20050;-48
2023/07/23 01:18:43;;;;;;;0.13;0.13;;;;;;;14.18;100.00;100644.09;5055157;28;20389;-48
2023/07/23 01:21:12;;;;;;;0.10;0.10;;;;;;;14.16;100.00;100642.38;5055505;28;20028;-48
2023/07/23 01:23:37;;;;;;;0.10;0.10;;;;;;;14.15;100.00;100635.44;5054515;28;20021;-50
2023/07/23 01:26:03;;;;;;;0.10;0.10;;;;;;;14.15;100.00;100630.25;5055499;28;20079;-50
2023/07/23 01:28:29;;;;;;;0.10;0.10;;;;;;;14.14;100.00;100628.50;5054978;28;20036;-50
2023/07/23 01:30:55;;;;;;;0.10;0.10;;;;;;;14.15;100.00;100624.19;5054478;28;20029;-48
2023/07/23 01:33:21;;;;;;;0.10;0.10;;;;;;;14.14;100.00;100615.56;5055263;28;20038;-49
2023/07/23 01:35:47;;;;;;;0.10;0.10;;;;;;;14.16;100.00;100610.38;5054439;28;20029;-48
2023/07/23 01:38:13;;;;;;;0.10;0.10;;;;;;;14.13;100.00;100603.44;5055359;28;20487;-50
2023/07/23 01:40:40;;;;;;;0.10;0.10;;;;;;;14.13;100.00;100600.00;5054922;28;20032;-48
2023/07/23 01:43:06;;;;;;;0.20;0.20;;;;;;;14.11;100.00;100602.56;5054140;28;20088;-50
2023/07/23 01:45:31;;;;;;;0.13;0.13;;;;;;;14.10;100.00;100595.66;5054517;28;20473;-49
2023/07/23 01:47:56;;;;;;;0.10;0.10;;;;;;;14.09;100.00;100596.50;5054870;28;20232;-48
2023/07/23 01:50:22;;;;;;;0.10;0.10;;;;;;;14.11;100.00;100596.50;5054061;28;20043;-48
2023/07/23 01:52:48;;;;;;;0.10;0.10;;;;;;;14.10;100.00;100589.56;5055012;28;20032;-50
2023/07/23 01:55:13;;;;;;;0.10;0.10;;;;;;;14.07;100.00;100580.06;5054950;28;20065;-49
2023/07/23 01:57:38;;;;;;;0.10;0.10;;;;;;;14.07;100.00;100577.47;5053697;28;20029;-49
2023/07/23 02:00:04;;;;;;;0.10;0.10;;;;;;;14.06;100.00;100578.34;5054659;28;20025;-50
2023/07/23 02:02:30;;;;;;;0.10;0.10;;;;;;;14.07;100.00;100571.41;5054309;28;20052;-49
2023/07/23 02:04:55;;;;;;;0.10;0.10;;;;;;;14.08;100.00;100566.25;5053366;28;20465;-50
2023/07/23 02:07:20;;;;;;;0.10;0.10;;;;;;;14.06;100.00;100562.78;5054806;28;20025;-49
2023/07/23 02:09:49;;;;;;;0.10;0.10;;;;;;;14.13;100.00;100564.56;5054152;28;20033;-49
2023/07/23 02:12:15;;;;;;;0.10;0.10;;;;;;;14.11;100.00;100560.22;5053992;28;20028;-50
2023/07/23 02:14:40;;;;;;;0.10;0.10;;;;;;;14.10;100.00;100553.28;5054096;28;20025;-50
2023/07/23 02:17:06;;;;;;;0.20;0.20;;;;;;;14.11;100.00;100553.34;5054353;28;20078;-50
2023/07/23 02:19:31;;;;;;;0.10;0.10;;;;;;;14.11;100.00;100545.56;5053099;28;20021;-48
2023/07/23 02:21:57;;;;;;;0.10;0.10;;;;;;;14.15;100.00;100547.31;5054421;28;20025;-50
2023/07/23 02:24:22;;;;;;;0.10;0.10;;;;;;;14.15;100.00;100544.72;5054134;28;20377;-47
2023/07/23 02:26:47;;;;;;;0.10;0.10;;;;;;;14.20;100.00;100538.72;5053543;28;20025;-49
2023/07/23 02:29:13;;;;;;;0.10;0.10;;;;;;;14.24;100.00;100536.19;5054144;28;20025;-49
2023/07/23 02:31:38;;;;;;;0.10;0.10;;;;;;;14.26;100.00;100525.81;5053698;28;20017;-50
2023/07/23 02:34:03;;;;;;;0.10;0.10;;;;;;;14.33;100.00;100536.25;5053214;28;20024;-50
2023/07/23 02:36:29;;;;;;;0.10;0.10;;;;;;;14.37;100.00;100526.78;5053872;28;20035;-51
2023/07/23 02:38:54;;;;;;;0.10;0.10;;;;;;;14.39;100.00;100525.06;5054140;28;20057;-50
2023/07/23 02:41:19;;;;;;;0.10;0.10;;;;;;;14.43;100.00;100524.22;5052874;28;20045;-48
2023/07/23 02:43:45;;;;;;;0.10;0.10;;;;;;;14.45;100.00;100525.13;5053569;28;20040;-51
2023/07/23 02:46:10;;;;;;;0.10;0.10;;;;;;;14.47;100.00;100520.84;5053003;28;20025;-48
2023/07/23 02:48:35;;;;;;;0.20;0.20;;;;;;;14.46;100.00;100521.69;5053352;28;20385;-48
2023/07/23 02:51:01;;;;;;;0.10;0.10;;;;;;;14.46;100.00;100506.13;5053904;28;20112;-49
2023/07/23 02:53:26;;;;;;;0.10;0.10;;;;;;;14.43;100.00;100516.44;5052755;28;20496;-49
2023/07/23 02:55:52;;;;;;;0.10;0.10;;;;;;;14.43;100.00;100507.81;5053867;28;20350;-50
2023/07/23 02:58:17;;;;;;;0.10;0.10;;;;;;;14.43;100.00;100507.81;5053735;28;20444;-49
2023/07/23 03:00:44;;;;;;;0.10;0.10;;;;;;;14.43;100.00;100506.06;5052473;28;20029;-51
2023/07/23 03:03:10;;;;;;;0.10;0.10;;;;;;;14.39;100.00;100499.13;5053425;28;20017;-50
2023/07/23 03:05:36;;;;;;;0.10;0.10;;;;;;;14.42;100.00;100506.97;5053194;28;20079;-49
2023/07/23 03:08:02;;;;;;;0.10;0.10;;;;;;;14.42;100.00;100494.00;5052715;28;20025;-49
2023/07/23 03:10:28;;;;;;;0.10;0.10;;;;;;;14.48;100.00;100496.63;5053138;28;20029;-50
2023/07/23 03:12:54;;;;;;;0.10;0.10;;;;;;;14.53;100.00;100493.22;5053428;28;20025;-50
2023/07/23 03:15:19;;;;;;;0.10;0.10;;;;;;;14.58;100.00;100494.13;5051992;28;20029;-51
2023/07/23 03:17:44;;;;;;;0.10;0.10;;;;;;;14.68;100.00;100495.97;5052774;28;20029;-48
2023/07/23 03:20:10;;;;;;;0.10;0.10;;;;;;;14.75;100.00;100492.53;5053470;28;20025;-50
2023/07/23 03:22:40;;;;;;;0.10;0.10;;;;;;;14.80;100.00;100490.81;5052185;28;20025;-49
2023/07/23 03:25:06;;;;;;;0.13;0.10;;;;;;;14.91;100.00;100487.44;5053364;28;20033;-51
2023/07/23 03:27:31;;;;;;;0.10;0.10;;;;;;;14.98;100.00;100490.06;5052854;28;20050;-50
2023/07/23 03:29:57;;;;;;;0.10;0.10;;;;;;;15.05;100.00;100497.91;5052258;28;20473;-50
2023/07/23 03:32:23;;;;;;;0.10;0.10;;;;;;;15.14;100.00;100490.16;5052826;28;20469;-45
2023/07/23 03:34:48;;;;;;;0.10;0.10;;;;;;;15.15;100.00;100495.34;5052860;28;20473;-50
2023/07/23 03:37:13;;;;;;;0.10;0.10;;;;;;;15.19;100.00;100490.19;5052347;28;20032;-50
2023/07/23 03:39:39;;;;;;;0.10;0.10;;;;;;;15.19;100.00;100492.78;5052712;28;20029;-49
2023/07/23 03:42:06;;;;;;;0.10;0.10;;;;;;;15.22;100.00;100483.28;5052781;28;20048;-51
2023/07/23 03:44:32;;;;;;;0.10;0.10;;;;;;;15.25;99.60;100487.63;5051883;28;20029;-50
2023/07/23 03:47:18;;;;;;;0.10;0.10;;;;;;;15.28;100.00;100483.28;5052786;28;20052;-49
2023/07/23 03:49:45;;;;;;;0.05;0.05;;;;;;;15.27;99.32;100488.50;5051696;28;20037;-50
2023/07/23 03:52:10;;;;;;;0.10;0.10;;;;;;;15.27;98.93;100489.38;5052868;28;20020;-49
2023/07/23 03:54:36;;;;;;;0.10;0.10;;;;;;;15.31;97.75;100485.94;5052287;28;20021;-51
2023/07/23 03:57:02;;;;;;;0.10;0.10;;;;;;;15.31;98.02;100485.03;5051936;28;20057;-45
2023/07/23 03:59:38;;;;;;;0.10;0.10;;;;;;;15.32;98.40;100486.78;5052197;28;20025;-49
2023/07/23 04:02:04;;;;;;;0.10;0.10;;;;;;;15.30;98.50;100491.13;5052726;28;20364;-49
2023/07/23 04:04:29;;;;;;;0.10;0.10;;;;;;;15.32;98.14;100486.78;5051709;28;20109;-50
2023/07/23 04:06:55;;;;;;;0.10;0.10;;;;;;;15.31;97.42;100491.13;5052616;28;20499;-49
2023/07/23 04:09:20;;;;;;;0.10;0.10;;;;;;;15.36;96.14;100483.31;5052567;28;20112;-50
2023/07/23 04:11:46;;;;;;;0.10;0.10;;;;;;;15.35;96.45;100488.53;5051496;28;20488;-48
2023/07/23 04:14:12;;;;;;;0.10;0.10;;;;;;;15.40;95.61;100486.81;5052488;28;20546;-51
2023/07/23 04:16:37;;;;;;;0.15;0.10;;;;;;;15.43;94.55;100492.88;5052219;28;20059;-48
2023/07/23 04:19:02;;;;;;;0.13;0.13;;;;;;;15.45;94.45;100491.19;5051935;28;20044;-50
2023/07/23 04:21:28;;;;;;;0.10;0.10;;;;;;;15.44;95.41;100484.25;5052248;28;20120;-49
2023/07/23 04:23:55;;;;;;;0.10;0.10;;;;;;;15.47;94.83;100489.44;5052492;28;20418;-49
2023/07/23 04:26:25;;;;;;;0.10;0.10;;;;;;;15.46;95.35;100492.88;5051529;28;20440;-54
2023/07/23 04:28:51;;;;;;;0.13;0.10;;;;;;;15.46;94.60;100482.50;5056526;28;20037;-51
2023/07/23 04:31:16;;;;;;;0.10;0.10;;;;;;;15.50;94.35;100492.91;5056319;28;20139;-49
2023/07/23 04:33:42;;;;;;;0.10;0.10;;;;;;;15.53;94.08;100490.31;5055422;28;20036;-50
2023/07/23 04:36:08;;;;;;;0.10;0.10;;;;;;;15.53;94.56;100488.59;5056396;28;20053;-50
2023/07/23 04:38:33;;;;;;;0.10;0.10;;;;;;;15.56;93.72;100487.75;5055960;28;20090;-49
2023/07/23 04:40:59;;;;;;;0.10;0.10;;;;;;;15.58;93.22;100491.19;5055323;28;20104;-49
2023/07/23 04:43:24;;;;;;;0.10;0.10;;;;;;;15.59;93.52;100488.59;5055571;28;20468;-51
2023/07/23 04:45:49;;;;;;;0.10;0.10;;;;;;;15.62;93.38;100492.94;5055466;28;20025;-51
2023/07/23 04:48:16;;;;;;;0.10;0.10;;;;;;;15.63;93.22;100489.50;5056094;28;20032;-45
2023/07/23 04:50:42;;;;;;;0.00;0.00;;;;;;;15.67;91.80;100486.03;5055859;28;20028;-51
2023/07/23 04:53:07;;;;;;;0.10;0.10;;;;;;;15.66;93.72;100481.72;5055211;28;20017;-49
2023/07/23 04:55:33;;;;;;;0.10;0.10;;;;;;;15.68;92.56;100490.38;5055604;28;20021;-51
2023/07/23 04:57:58;;;;;;;0.10;0.10;;;;;;;15.69;91.58;100483.47;5056051;28;20428;-47
2023/07/23 05:00:24;;;;;;;0.10;0.10;;;;;;;15.70;92.24;100480.88;5054970;28;20461;-50
2023/07/23 05:02:49;;;;;;;0.10;0.10;;;;;;;15.73;90.75;100486.06;5055914;28;20029;-48
2023/07/23 05:05:15;;;;;;;0.10;0.10;;;;;;;15.73;91.10;100480.84;5055827;28;20056;-49
2023/07/23 05:07:40;;;;;;;0.10;0.10;;;;;;;15.73;91.54;100486.06;5054753;28;20013;-50
2023/07/23 05:10:06;;;;;;;0.10;0.10;;;;;;;15.69;92.51;100478.25;5055502;28;20528;-50
2023/07/23 05:12:32;;;;;;;0.10;0.10;;;;;;;15.64;93.13;100484.28;5055470;28;20078;-46
2023/07/23 05:15:12;;;;;;;0.10;0.10;;;;;;;15.59;93.74;100479.97;5054959;28;20381;-50
2023/07/23 05:17:38;;;;;;;0.10;0.10;;;;;;;15.54;93.13;100489.47;5055126;28;20389;-48
2023/07/23 05:20:07;;;;;;;0.10;0.10;;;;;;;15.48;95.94;100482.53;5055391;28;20021;-48
2023/07/23 05:22:35;;;;;;;0.10;0.10;;;;;;;15.46;94.85;100487.69;5054433;28;20025;-50
2023/07/23 05:25:01;;;;;;;0.10;0.10;;;;;;;15.43;95.51;100487.69;5055503;28;20097;-49
2023/07/23 05:27:26;;;;;;;0.10;0.10;;;;;;;15.41;95.92;100491.16;5055210;28;20052;-50
2023/07/23 05:29:52;;;;;;;0.10;0.10;;;;;;;15.40;96.65;100497.19;5054413;28;20464;-48
2023/07/23 05:32:17;;;;;;;0.10;0.10;;;;;;;15.37;96.87;100484.22;5055183;28;20496;-50
2023/07/23 05:34:42;;;;;;;0.00;0.00;;;;;;;15.33;96.81;100485.94;5054875;28;20481;-48
2023/07/23 05:37:08;;;;;;;0.10;0.10;;;;;;;15.31;97.32;100482.44;5054518;28;20491;-50
2023/07/23 05:39:34;;;;;;;0.10;0.10;;;;;;;15.30;98.23;100480.72;5054651;28;20033;-49
2023/07/23 05:41:59;;;;;;;0.10;0.10;;;;;;;15.28;98.46;100485.03;5053968;28;20094;-50
2023/07/23 05:44:25;;;;;;;0.17;0.10;;;;;;;15.29;99.32;100490.22;5054942;28;20017;-50
2023/07/23 05:46:50;;;;;;;0.03;0.03;;;;;;;15.29;98.65;100476.41;5054951;28;20373;-49
2023/07/23 05:49:16;;;;;;;0.10;0.10;;;;;;;15.28;98.85;100480.69;5054068;28;20035;-49
2023/07/23 05:51:42;;;;;;;0.10;0.10;;;;;;;15.26;98.60;100473.75;5054634;28;20825;-51
2023/07/23 05:54:07;;;;;;;0.10;0.10;;;;;;;15.24;100.00;100483.28;5054807;28;20588;-49
2023/07/23 05:56:33;;;;;;;0.10;0.10;;;;;;;15.21;99.63;100481.56;5053901;28;20385;-50
2023/07/23 05:58:58;;;;;;;0.05;0.05;;;;;;;15.23;98.34;100481.56;5054722;28;20032;-50
2023/07/23 06:01:23;;;;;;;0.10;0.10;;;;;;;15.22;98.03;100472.91;5054364;28;20028;-49
2023/07/23 06:03:49;;;;;;;0.10;0.10;;;;;;;15.26;96.69;100473.75;5053773;28;20499;-47
2023/07/23 06:06:14;;;;;;;0.10;0.10;;;;;;;15.32;99.30;100479.00;5054555;28;20113;-49
2023/07/23 06:08:39;;;;;;;0.10;0.10;;;;;;;15.35;97.75;100478.13;5054207;28;20035;-49
2023/07/23 06:11:04;;;;;;;0.10;0.10;;;;;;;15.38;98.50;100471.22;5053641;28;20473;-49
2023/07/23 06:13:30;;;;;;;0.10;0.10;;;;;;;15.43;96.84;100477.31;5054280;28;20056;-48
2023/07/23 06:15:55;;;;;;;0.10;0.10;;;;;;;15.46;98.40;100487.69;5054557;28;20099;-49
2023/07/23 06:18:20;;;;;;;0.10;0.10;;;;;;;15.44;98.19;100479.06;5053469;28;20103;-50
2023/07/23 06:20:45;;;;;;;0.10;0.10;;;;;;;15.36;99.08;100485.94;5054026;28;20021;-47
2023/07/23 06:23:11;;;;;;;0.10;0.10;;;;;;;15.29;100.00;100485.03;5054167;28;20488;-50
2023/07/23 06:25:36;;;;;;;0.20;0.20;;;;;;;15.19;100.00;100482.41;5053081;28;20060;-49
2023/07/23 06:28:01;;;;;;;0.10;0.10;;;;;;;15.09;100.00;100482.38;5054090;28;20021;-49
2023/07/23 06:30:27;;;;;;;0.10;0.10;;;;;;;15.03;100.00;100490.13;5054208;28;20033;-49
2023/07/23 06:32:52;;;;;;;0.10;0.10;;;;;;;14.95;100.00;100484.88;5053497;28;20063;-50
2023/07/23 06:35:17;;;;;;;0.10;0.10;;;;;;;14.92;100.00;100484.00;5054166;28;20116;-49
2023/07/23 06:37:43;;;;;;;0.10;0.10;;;;;;;14.91;100.00;100495.22;5053646;28;20104;-49
2023/07/23 06:40:09;;;;;;;0.10;0.10;;;;;;;14.92;100.00;100497.81;5053384;28;20076;-50
2023/07/23 06:42:34;;;;;;;0.10;0.10;;;;;;;14.93;100.00;100498.72;5053632;28;20080;-49
2023/07/23 06:44:59;;;;;;;0.20;0.10;;;;;;;14.93;100.00;100506.50;5053991;28;20082;-47
2023/07/23 06:47:25;;;;;;;0.20;0.20;;;;;;;14.96;100.00;100511.69;5052877;28;20021;-49
2023/07/23 06:49:50;;;;;;;0.10;0.10;;;;;;;15.00;100.00;100507.38;5053730;28;20032;-47
2023/07/23 06:52:15;;;;;;;0.10;0.10;;;;;;;15.02;100.00;100501.34;5053376;28;20381;-45
2023/07/23 06:54:42;;;;;;;0.10;0.10;;;;;;;15.09;100.00;100513.50;5053308;28;20465;-50
2023/07/23 06:57:08;;;;;;;0.10;0.10;;;;;;;15.11;100.00;100506.59;5053707;28;20021;-47
2023/07/23 06:59:33;;;;;;;0.10;0.10;;;;;;;15.02;100.00;100511.72;5052723;28;20279;-44
2023/07/23 07:01:59;;;;;;;0.10;0.10;;;;;;;14.99;100.00;100511.72;5053676;28;20025;-49
2023/07/23 07:04:24;;;;;;;0.10;0.10;;;;;;;14.94;100.00;100513.41;5053265;28;20488;-49
2023/07/23 07:06:49;;;;;;;0.10;0.10;;;;;;;14.89;100.00;100530.69;5052607;28;20032;-50
2023/07/23 07:09:15;;;;;;;0.10;0.10;;;;;;;14.75;100.00;100518.47;5053557;28;20029;-47
2023/07/23 07:11:40;;;;;;;0.10;0.10;;;;;;;14.64;100.00;100517.50;5053286;28;20137;-50
2023/07/23 07:14:05;;;;;;;0.10;0.10;;;;;;;14.56;100.00;100520.00;5052755;28;20048;-48
2023/07/23 07:16:31;;;;;;;0.10;0.10;;;;;;;14.46;100.00;100516.50;5052893;28;20126;-46
2023/07/23 07:18:56;;;;;;;0.15;0.15;;;;;;;14.40;100.00;100521.63;5053226;28;20028;-49
2023/07/23 07:21:21;;;;;;;0.10;0.10;;;;;;;14.40;100.00;100513.00;5052459;28;20036;-46
2023/07/23 07:23:47;;;;;;;0.10;0.10;;;;;;;14.42;100.00;100513.84;5052869;28;20112;-45
2023/07/23 07:26:12;;;;;;;0.10;0.10;;;;;;;14.45;100.00;100513.91;5053401;28;20385;-44
2023/07/23 07:28:37;;;;;;;0.10;0.10;;;;;;;14.36;100.00;100509.50;5052114;28;20033;-49
2023/07/23 07:31:03;;;;;;;0.10;0.10;;;;;;;14.39;100.00;100513.84;5053330;28;20432;-48
2023/07/23 07:33:29;;;;;;;0.10;0.10;;;;;;;14.31;100.00;100521.53;5052882;28;20516;-47
2023/07/23 07:35:56;;;;;;;0.10;0.10;;;;;;;14.33;100.00;100520.72;5052242;28;20029;-49
2023/07/23 07:38:21;;;;;;;0.10;0.10;;;;;;;14.40;100.00;100521.63;5053010;28;20056;-50
2023/07/23 07:40:48;;;;;;;0.10;0.10;;;;;;;14.40;100.00;100516.44;5052878;28;20056;-46
2023/07/23 07:43:13;;;;;;;0.13;0.13;;;;;;;14.40;100.00;100513.84;5052022;28;20041;-48
2023/07/23 07:45:39;;;;;;;0.10;0.10;;;;;;;14.42;100.00;100511.25;5052613;28;20028;-46
2023/07/23 07:48:04;;;;;;;0.10;0.10;;;;;;;14.47;100.00;100515.66;5052817;28;20389;-46
2023/07/23 07:50:30;;;;;;;0.10;0.10;;;;;;;14.50;100.00;100514.81;5051812;28;20025;-49
2023/07/23 07:52:55;;;;;;;0.10;0.10;;;;;;;14.58;100.00;100513.13;5052633;28;20041;-46
2023/07/23 07:55:20;;;;;;;0.10;0.10;;;;;;;14.69;100.00;100513.22;5052914;28;20061;-47
2023/07/23 07:57:46;;;;;;;0.10;0.10;;;;;;;14.79;100.00;100509.84;5051587;28;20086;-46
2023/07/23 08:00:12;;;;;;;0.10;0.10;;;;;;;14.86;100.00;100512.47;5052757;28;20061;-47
2023/07/23 08:02:39;;;;;;;0.10;0.10;;;;;;;14.95;100.00;100504.75;5051246;28;20108;-45
2023/07/23 08:05:05;;;;;;;0.10;0.10;;;;;;;15.13;100.00;100512.66;5052775;28;20493;-47
2023/07/23 08:07:31;;;;;;;0.10;0.10;;;;;;;15.25;100.00;100503.22;5052184;28;20033;-44
2023/07/23 08:09:59;;;;;;;0.10;0.10;;;;;;;15.23;100.00;100513.56;5051811;28;20072;-45
2023/07/23 08:12:25;;;;;;;0.10;0.10;;;;;;;15.19;100.00;100509.22;5052324;28;20037;-45
2023/07/23 08:14:53;;;;;;;0.10;0.10;;;;;;;15.04;100.00;100511.72;5052513;28;20021;-44
2023/07/23 08:17:18;;;;;;;0.10;0.10;;;;;;;14.98;100.00;100513.44;5051866;28;20029;-47
2023/07/23 08:19:44;;;;;;;0.10;0.10;;;;;;;14.96;100.00;100511.69;5052043;28;20032;-48
2023/07/23 08:22:09;;;;;;;0.10;0.10;;;;;;;15.00;100.00;100513.44;5052559;28;20027;-45
2023/07/23 08:24:35;;;;;;;0.10;0.10;;;;;;;15.01;100.00;100509.97;5051250;28;20027;-47
2023/07/23 08:27:03;;;;;;;0.10;0.10;;;;;;;15.07;100.00;100520.41;5052560;28;20109;-44
2023/07/23 08:29:30;;;;;;;0.10;0.10;;;;;;;15.10;100.00;100516.97;5052194;28;20029;-46
2023/07/23 08:31:56;;;;;;;0.10;0.10;;;;;;;15.19;100.00;100513.56;5051622;28;20021;-50
2023/07/23 08:34:22;;;;;;;0.10;0.10;;;;;;;15.31;100.00;100508.41;5052322;28;20032;-45
2023/07/23 08:36:48;;;;;;;0.10;0.10;;;;;;;15.37;100.00;100515.38;5052528;28;20025;-48
2023/07/23 08:39:14;;;;;;;0.10;0.10;;;;;;;15.35;100.00;100512.78;5051652;28;20495;-45
2023/07/23 08:41:54;;;;;;;0.10;0.10;;;;;;;15.30;100.00;100511.88;5051960;28;20053;-48
2023/07/23 08:44:34;;;;;;;0.10;0.10;;;;;;;15.30;100.00;100519.69;5052390;28;20098;-47
2023/07/23 08:47:12;;;;;;;0.10;0.10;;;;;;;15.43;100.00;100511.06;5051873;28;20025;-48
2023/07/23 08:49:40;;;;;;;0.10;0.10;;;;;;;15.46;100.00;100516.25;5052073;28;20033;-45
2023/07/23 08:52:06;;;;;;;0.10;0.10;;;;;;;15.40;100.00;100512.78;5051612;28;20107;-45
2023/07/23 08:54:31;;;;;;;0.10;0.10;;;;;;;15.38;100.00;100509.31;5052024;28;20532;-47
2023/07/23 08:56:58;;;;;;;0.10;0.10;;;;;;;15.46;100.00;100508.47;5052140;28;20021;-48
2023/07/23 08:59:26;;;;;;;0.10;0.10;;;;;;;15.52;100.00;100512.84;5050917;28;20381;-46
2023/07/23 09:01:52;;;;;;;0.10;0.10;;;;;;;15.59;100.00;100513.72;5052223;28;20021;-45
2023/07/23 09:04:17;;;;;;;0.10;0.10;;;;;;;15.62;100.00;100501.63;5052366;28;20032;-44
2023/07/23 09:06:43;;;;;;;0.10;0.10;;;;;;;15.73;100.00;100511.19;5051043;28;20040;-45
2023/07/23 09:09:10;;;;;;;0.10;0.10;;;;;;;15.65;100.00;100518.94;5052163;28;20465;-46
2023/07/23 09:11:36;;;;;;;0.10;0.10;;;;;;;15.68;100.00;100511.16;5051930;28;20430;-48
2023/07/23 09:14:10;;;;;;;0.10;0.10;;;;;;;15.63;100.00;100516.34;5051978;28;20040;-48
2023/07/23 09:16:40;;;;;;;0.10;0.10;;;;;;;15.61;100.00;100517.22;5055219;28;20021;-47
2023/07/23 09:19:08;;;;;;;0.10;0.10;;;;;;;15.64;100.00;100518.06;5055596;28;20025;-49
2023/07/23 09:21:34;;;;;;;0.10;0.10;;;;;;;15.60;100.00;100516.31;5054545;28;20110;-46
2023/07/23 09:24:02;;;;;;;0.10;0.10;;;;;;;15.59;100.00;100516.31;5055634;28;20074;-45
2023/07/23 09:26:28;;;;;;;0.10;0.10;;;;;;;15.64;100.00;100517.22;5055032;28;20029;-45
2023/07/23 09:28:55;;;;;;;0.10;0.10;;;;;;;15.59;100.00;100514.59;5054682;28;20025;-47
2023/07/23 09:31:27;;;;;;;0.10;0.10;;;;;;;15.59;100.00;100521.53;5055455;28;20032;-45
2023/07/23 09:33:54;;;;;;;0.10;0.10;;;;;;;15.53;100.00;100524.97;5055428;28;20043;-48
2023/07/23 09:36:21;;;;;;;0.10;0.10;;;;;;;15.53;100.00;100524.09;5054504;28;20021;-44
2023/07/23 09:38:54;;;;;;;0.10;0.10;;;;;;;15.54;100.00;100531.03;5054796;28;20029;-45
2023/07/23 09:41:20;;;;;;;0.10;0.10;;;;;;;15.47;100.00;100520.59;5054358;28;20055;-48
2023/07/23 09:43:45;;;;;;;0.10;0.10;;;;;;;15.41;100.00;100520.56;5054986;28;20056;-46
2023/07/23 09:46:11;;;;;;;0.10;0.10;;;;;;;15.38;100.00;100525.75;5055111;28;20099;-47
2023/07/23 09:48:44;;;;;;;0.10;0.10;;;;;;;15.36;100.00;100527.47;5053877;28;20108;-45
2023/07/23 09:51:10;;;;;;;0.10;0.10;;;;;;;15.38;100.00;100527.50;5054838;28;20384;-44
2023/07/23 09:53:41;;;;;;;0.10;0.10;;;;;;;15.37;100.00;100528.34;5054538;28;20040;-45
2023/07/23 09:56:09;;;;;;;0.10;0.10;;;;;;;15.44;100.00;100528.41;5054032;28;20454;-46
2023/07/23 09:58:37;;;;;;;0.10;0.10;;;;;;;15.41;100.00;100530.09;5054676;28;20071;-45
2023/07/23 10:01:03;;;;;;;0.10;0.10;;;;;;;15.43;100.00;100528.41;5054737;28;20416;-49
2023/07/23 10:03:31;;;;;;;0.10;0.10;;;;;;;15.42;100.00;100537.88;5053534;28;20427;-46
2023/07/23 10:05:56;;;;;;;0.10;0.10;;;;;;;15.37;100.00;100528.34;5054520;28;20017;-50
2023/07/23 10:08:23;;;;;;;0.10;0.10;;;;;;;15.28;100.00;100534.38;5054786;28;20098;-46
2023/07/23 10:10:49;;;;;;;0.05;0.05;;;;;;;15.26;100.00;100536.06;5053888;28;20035;-50
2023/07/23 10:13:14;;;;;;;0.10;0.10;;;;;;;15.18;100.00;100536.03;5054614;28;20029;-49
2023/07/23 10:15:40;;;;;;;0.10;0.10;;;;;;;15.15;100.00;100542.06;5054274;28;20032;-50
2023/07/23 10:18:06;;;;;;;0.10;0.10;;;;;;;15.14;100.00;100548.16;5053649;28;20056;-45
2023/07/23 10:20:32;;;;;;;0.10;0.10;;;;;;;15.13;100.00;100540.31;5054031;28;20503;-47
2023/07/23 10:22:58;;;;;;;0.08;0.08;;;;;;;15.11;100.00;100537.72;5054508;28;20163;-46
2023/07/23 10:25:34;;;;;;;0.10;0.10;;;;;;;15.13;100.00;100545.53;5053101;28;20067;-48
2023/07/23 10:28:07;;;;;;;0.10;0.10;;;;;;;15.15;100.00;100539.47;5054205;28;20032;-49
2023/07/23 10:30:38;;;;;;;0.10;0.10;;;;;;;15.15;100.00;100542.06;5053384;28;20021;-50
2023/07/23 10:33:09;;;;;;;0.10;0.10;;;;;;;15.21;100.00;100549.03;5054088;28;20112;-46
2023/07/23 10:35:53;;;;;;;0.10;0.10;;;;;;;15.24;100.00;100553.38;5053976;28;20028;-47
2023/07/23 10:38:24;;;;;;;0.10;0.10;;;;;;;15.24;100.00;100548.19;5053301;28;20480;-49
2023/07/23 10:40:49;;;;;;;0.10;0.10;;;;;;;15.25;100.00;100553.41;5053995;28;20025;-49
2023/07/23 10:43:16;;;;;;;0.10;0.10;;;;;;;15.25;100.00;100549.94;5053808;28;20048;-46
2023/07/23 10:46:03;;;;;;;0.10;0.10;;;;;;;15.29;100.00;100552.53;5052878;28;20048;-49
2023/07/23 10:48:40;;;;;;;;;;;;;;;15.36;100.00;100543.06;5054192;28;20056;-47
2023/07/23 10:51:08;;;;;;;0.10;0.10;;;;;;;15.34;100.00;100543.91;5053913;28;19919;-51
2023/07/23 10:53:37;;;;;;;0.10;0.10;;;;;;;15.46;100.00;100550.03;5052806;28;20087;-47
2023/07/23 10:56:03;;;;;;;0.10;0.10;;;;;;;15.46;100.00;100541.38;5053608;28;20029;-50
2023/07/23 10:58:28;;;;;;;0.10;0.10;;;;;;;15.53;100.00;100540.56;5052760;28;20032;-46
2023/07/23 11:00:58;;;;;;;0.10;0.10;;;;;;;15.54;100.00;100542.25;5053833;28;20048;-46
2023/07/23 11:03:25;;;;;;;0.10;0.10;;;;;;;15.63;100.00;100536.25;5053444;28;20027;-50
2023/07/23 11:05:51;;;;;;;0.10;0.10;;;;;;;15.67;100.00;100548.38;5052936;28;20033;-51
2023/07/23 11:08:19;;;;;;;0.10;0.10;;;;;;;15.78;100.00;100540.66;5053261;28;20460;-49
2023/07/23 11:10:57;;;;;;;0.10;0.10;;;;;;;15.92;100.00;100548.50;5053097;28;20377;-49
2023/07/23 11:13:24;;;;;;;0.10;0.10;;;;;;;16.08;100.00;100550.28;5052474;28;20036;-46
2023/07/23 11:15:50;;;;;;;0.10;0.10;;;;;;;16.33;100.00;100545.09;5053335;28;20385;-49